createdAt,value
2023-03-01T00:00:20.416Z,101644.84
2023-03-01T00:02:49.998Z,101637.25
2023-03-01T00:05:19.585Z,101639.39
2023-03-01T00:07:49.092Z,101646.15
2023-03-01T00:10:19.262Z,101650.78
2023-03-01T00:12:48.831Z,101658.94
2023-03-01T00:15:18.611Z,101655.42
2023-03-01T00:17:48.136Z,101658.00
2023-03-01T00:20:18.119Z,101655.81
2023-03-01T00:22:47.881Z,101652.80
2023-03-01T00:25:17.847Z,101660.86
2023-03-01T00:27:49.968Z,101653.10
2023-03-01T00:30:19.684Z,101655.23
2023-03-01T00:32:49.185Z,101650.73
2023-03-01T00:35:19.091Z,101640.37
2023-03-01T00:37:48.678Z,101640.61
2023-03-01T00:40:18.577Z,101645.95
2023-03-01T00:42:48.430Z,101634.54
2023-03-01T00:45:19.074Z,101628.74
2023-03-01T00:47:48.843Z,101635.83
2023-03-01T00:50:19.509Z,101632.33
2023-03-01T00:52:50.988Z,101629.70
2023-03-01T00:55:20.741Z,101625.74
2023-03-01T00:57:50.513Z,101624.27
2023-03-01T01:00:21.647Z,101622.59
2023-03-01T01:02:50.422Z,101619.50
2023-03-01T01:05:21.564Z,101610.86
2023-03-01T01:07:51.294Z,101608.09
2023-03-01T01:10:21.127Z,101608.05
2023-03-01T01:12:50.726Z,101608.86
2023-03-01T01:15:20.558Z,101613.52
2023-03-01T01:17:50.424Z,101613.52
2023-03-01T01:20:20.319Z,101611.77
2023-03-01T01:22:50.166Z,101614.77
2023-03-01T01:25:20.270Z,101618.06
2023-03-01T01:27:49.752Z,101609.87
2023-03-01T01:30:19.760Z,101605.16
2023-03-01T01:32:49.255Z,101600.31
2023-03-01T01:35:19.202Z,101600.17
2023-03-01T01:37:48.703Z,101595.84
2023-03-01T01:40:18.844Z,101593.22
2023-03-01T01:42:48.490Z,101588.39
2023-03-01T01:45:36.018Z,101590.05
2023-03-01T01:48:09.599Z,101585.27
2023-03-01T01:50:42.244Z,101586.88
2023-03-01T01:53:17.860Z,101587.33
2023-03-01T01:55:53.598Z,101585.17
2023-03-01T01:58:24.131Z,101580.94
2023-03-01T02:00:52.909Z,101569.30
2023-03-01T02:03:33.126Z,101566.56
2023-03-01T02:06:08.463Z,101573.66
2023-03-01T02:08:42.231Z,101571.84
2023-03-01T02:11:15.642Z,101566.84
2023-03-01T02:13:45.888Z,101566.84
2023-03-01T02:16:17.595Z,101568.91
2023-03-01T02:18:48.365Z,101573.62
2023-03-01T02:21:30.531Z,101574.88
2023-03-01T02:24:03.433Z,101574.41
2023-03-01T02:26:44.905Z,101573.71
2023-03-01T02:29:14.539Z,101568.67
2023-03-01T02:31:44.265Z,101568.67
